sensor_id;sensor_type;location;lat;lon;timestamp;temperature;humidity
19941;DHT22;10132;50.864;5.176;2023-05-02T00:00:27;12.10;99.90
19941;DHT22;10132;50.864;5.176;2023-05-02T00:02:30;12.10;99.90
19941;DHT22;10132;50.864;5.176;2023-05-02T00:04:33;12.20;99.90
19941;DHT22;10132;50.864;5.176;2023-05-02T00:06:35;12.30;99.90
19941;DHT22;10132;50.864;5.176;2023-05-02T00:08:38;12.30;99.90
19941;DHT22;10132;50.864;5.176;2023-05-02T00:10:40;12.40;99.90
19941;DHT22;10132;50.864;5.176;2023-05-02T00:12:42;12.40;99.90
19941;DHT22;10132;50.864;5.176;2023-05-02T00:14:44;12.30;99.90
19941;DHT22;10132;50.864;5.176;2023-05-02T00:16:47;12.40;99.90
19941;DHT22;10132;50.864;5.176;2023-05-02T00:18:50;12.40;99.90
19941;DHT22;10132;50.864;5.176;2023-05-02T00:20:54;12.40;99.90
19941;DHT22;10132;50.864;5.176;2023-05-02T00:22:56;12.30;99.90
19941;DHT22;10132;50.864;5.176;2023-05-02T00:24:58;12.20;99.90
19941;DHT22;10132;50.864;5.176;2023-05-02T00:27:00;12.20;99.90
19941;DHT22;10132;50.864;5.176;2023-05-02T00:29:02;12.10;99.90
19941;DHT22;10132;50.864;5.176;2023-05-02T00:31:04;12.10;99.90
19941;DHT22;10132;50.864;5.176;2023-05-02T00:33:07;12.00;99.90
19941;DHT22;10132;50.864;5.176;2023-05-02T00:35:11;12.10;99.90
19941;DHT22;10132;50.864;5.176;2023-05-02T00:37:15;12.10;99.90
19941;DHT22;10132;50.864;5.176;2023-05-02T00:39:18;12.10;99.90
19941;DHT22;10132;50.864;5.176;2023-05-02T00:41:20;12.10;99.90
19941;DHT22;10132;50.864;5.176;2023-05-02T00:43:22;12.00;99.90
19941;DHT22;10132;50.864;5.176;2023-05-02T00:45:26;12.10;99.90
19941;DHT22;10132;50.864;5.176;2023-05-02T00:47:29;12.10;99.90
19941;DHT22;10132;50.864;5.176;2023-05-02T00:49:32;12.10;99.90
19941;DHT22;10132;50.864;5.176;2023-05-02T00:51:36;12.10;99.90
19941;DHT22;10132;50.864;5.176;2023-05-02T00:53:39;12.10;99.90
19941;DHT22;10132;50.864;5.176;2023-05-02T00:55:42;12.10;99.90
19941;DHT22;10132;50.864;5.176;2023-05-02T00:57:44;12.10;99.90
19941;DHT22;10132;50.864;5.176;2023-05-02T00:59:46;12.10;99.90
19941;DHT22;10132;50.864;5.176;2023-05-02T01:01:56;12.20;99.90
19941;DHT22;10132;50.864;5.176;2023-05-02T01:04:10;12.20;99.90
19941;DHT22;10132;50.864;5.176;2023-05-02T01:06:27;12.20;99.90
19941;DHT22;10132;50.864;5.176;2023-05-02T01:08:39;12.20;99.90
19941;DHT22;10132;50.864;5.176;2023-05-02T01:10:48;12.20;99.90
19941;DHT22;10132;50.864;5.176;2023-05-02T01:12:57;12.20;99.90
19941;DHT22;10132;50.864;5.176;2023-05-02T01:15:06;12.00;99.90
19941;DHT22;10132;50.864;5.176;2023-05-02T01:17:12;12.00;99.90
19941;DHT22;10132;50.864;5.176;2023-05-02T01:19:30;12.00;99.90
19941;DHT22;10132;50.864;5.176;2023-05-02T01:21:33;11.90;99.90
19941;DHT22;10132;50.864;5.176;2023-05-02T01:23:45;11.80;99.90
19941;DHT22;10132;50.864;5.176;2023-05-02T01:25:58;11.80;99.90
19941;DHT22;10132;50.864;5.176;2023-05-02T01:28:13;11.80;99.90
19941;DHT22;10132;50.864;5.176;2023-05-02T01:30:22;11.80;99.90
19941;DHT22;10132;50.864;5.176;2023-05-02T01:32:26;11.80;99.90
19941;DHT22;10132;50.864;5.176;2023-05-02T01:34:31;11.80;99.90
19941;DHT22;10132;50.864;5.176;2023-05-02T01:36:35;11.70;99.90
19941;DHT22;10132;50.864;5.176;2023-05-02T01:38:41;11.80;99.90
19941;DHT22;10132;50.864;5.176;2023-05-02T01:40:45;11.70;99.90
19941;DHT22;10132;50.864;5.176;2023-05-02T01:42:50;11.80;99.90
19941;DHT22;10132;50.864;5.176;2023-05-02T01:44:54;11.80;99.90
19941;DHT22;10132;50.864;5.176;2023-05-02T01:46:59;11.80;99.90
19941;DHT22;10132;50.864;5.176;2023-05-02T01:49:05;11.80;99.90
19941;DHT22;10132;50.864;5.176;2023-05-02T01:51:08;11.80;99.90
19941;DHT22;10132;50.864;5.176;2023-05-02T01:53:11;11.90;99.90
19941;DHT22;10132;50.864;5.176;2023-05-02T01:55:15;11.90;99.90
19941;DHT22;10132;50.864;5.176;2023-05-02T01:57:18;11.90;99.90
19941;DHT22;10132;50.864;5.176;2023-05-02T01:59:22;11.90;99.90
19941;DHT22;10132;50.864;5.176;2023-05-02T02:01:26;11.90;99.90
19941;DHT22;10132;50.864;5.176;2023-05-02T02:03:31;11.90;99.90
19941;DHT22;10132;50.864;5.176;2023-05-02T02:05:34;11.90;99.90
19941;DHT22;10132;50.864;5.176;2023-05-02T02:07:38;11.90;99.90
19941;DHT22;10132;50.864;5.176;2023-05-02T02:09:40;11.90;99.90
19941;DHT22;10132;50.864;5.176;2023-05-02T02:11:46;11.90;99.90
19941;DHT22;10132;50.864;5.176;2023-05-02T02:14:02;11.90;99.90
19941;DHT22;10132;50.864;5.176;2023-05-02T02:16:08;11.80;99.90
19941;DHT22;10132;50.864;5.176;2023-05-02T02:18:17;11.80;99.90
19941;DHT22;10132;50.864;5.176;2023-05-02T02:20:21;11.80;99.90
19941;DHT22;10132;50.864;5.176;2023-05-02T02:22:25;11.90;99.90
19941;DHT22;10132;50.864;5.176;2023-05-02T02:24:29;11.90;99.90
19941;DHT22;10132;50.864;5.176;2023-05-02T02:26:33;11.90;99.90
19941;DHT22;10132;50.864;5.176;2023-05-02T02:28:36;11.90;99.90
19941;DHT22;10132;50.864;5.176;2023-05-02T02:30:39;12.00;99.90
19941;DHT22;10132;50.864;5.176;2023-05-02T02:32:42;11.90;99.90
19941;DHT22;10132;50.864;5.176;2023-05-02T02:34:44;11.90;99.90
19941;DHT22;10132;50.864;5.176;2023-05-02T02:36:52;11.90;99.90
19941;DHT22;10132;50.864;5.176;2023-05-02T02:39:03;11.90;99.90
19941;DHT22;10132;50.864;5.176;2023-05-02T02:41:13;11.90;99.90
19941;DHT22;10132;50.864;5.176;2023-05-02T02:43:19;12.00;99.90
19941;DHT22;10132;50.864;5.176;2023-05-02T02:45:32;12.00;99.90
19941;DHT22;10132;50.864;5.176;2023-05-02T02:47:41;11.90;99.90
19941;DHT22;10132;50.864;5.176;2023-05-02T02:49:48;11.80;99.90
19941;DHT22;10132;50.864;5.176;2023-05-02T02:52:00;11.80;99.90
19941;DHT22;10132;50.864;5.176;2023-05-02T02:54:11;11.70;99.90
19941;DHT22;10132;50.864;5.176;2023-05-02T02:56:16;11.70;99.90
19941;DHT22;10132;50.864;5.176;2023-05-02T02:58:28;11.70;99.90
19941;DHT22;10132;50.864;5.176;2023-05-02T03:00:31;11.70;99.90
19941;DHT22;10132;50.864;5.176;2023-05-02T03:02:34;11.60;99.90
19941;DHT22;10132;50.864;5.176;2023-05-02T03:04:39;11.60;99.90
19941;DHT22;10132;50.864;5.176;2023-05-02T03:06:42;11.50;99.90
19941;DHT22;10132;50.864;5.176;2023-05-02T03:08:45;11.50;99.90
19941;DHT22;10132;50.864;5.176;2023-05-02T03:10:48;11.50;99.90
19941;DHT22;10132;50.864;5.176;2023-05-02T03:12:51;11.40;99.90
19941;DHT22;10132;50.864;5.176;2023-05-02T03:15:01;11.30;99.90
19941;DHT22;10132;50.864;5.176;2023-05-02T03:17:06;11.20;99.90
19941;DHT22;10132;50.864;5.176;2023-05-02T03:19:17;11.20;99.90
19941;DHT22;10132;50.864;5.176;2023-05-02T03:21:19;11.20;99.90
19941;DHT22;10132;50.864;5.176;2023-05-02T03:23:21;11.20;99.90
19941;DHT22;10132;50.864;5.176;2023-05-02T03:25:25;11.20;99.90
19941;DHT22;10132;50.864;5.176;2023-05-02T03:27:27;11.20;99.90
19941;DHT22;10132;50.864;5.176;2023-05-02T03:29:31;11.10;99.90
19941;DHT22;10132;50.864;5.176;2023-05-02T03:31:34;11.10;99.90
19941;DHT22;10132;50.864;5.176;2023-05-02T03:33:36;11.00;99.90
19941;DHT22;10132;50.864;5.176;2023-05-02T03:35:38;11.00;99.90
19941;DHT22;10132;50.864;5.176;2023-05-02T03:37:42;10.90;99.90
19941;DHT22;10132;50.864;5.176;2023-05-02T03:39:44;10.90;99.90
19941;DHT22;10132;50.864;5.176;2023-05-02T03:41:51;10.80;99.90
19941;DHT22;10132;50.864;5.176;2023-05-02T03:43:53;10.80;99.90
19941;DHT22;10132;50.864;5.176;2023-05-02T03:45:56;10.70;99.90
19941;DHT22;10132;50.864;5.176;2023-05-02T03:47:58;10.70;99.90
19941;DHT22;10132;50.864;5.176;2023-05-02T03:50:00;10.70;99.90
19941;DHT22;10132;50.864;5.176;2023-05-02T03:52:03;10.80;99.90
19941;DHT22;10132;50.864;5.176;2023-05-02T03:54:06;10.80;99.90
19941;DHT22;10132;50.864;5.176;2023-05-02T03:56:11;10.90;99.90
19941;DHT22;10132;50.864;5.176;2023-05-02T03:58:15;11.00;99.90
19941;DHT22;10132;50.864;5.176;2023-05-02T04:00:17;11.00;99.90
19941;DHT22;10132;50.864;5.176;2023-05-02T04:02:20;11.00;99.90
19941;DHT22;10132;50.864;5.176;2023-05-02T04:04:22;11.00;99.90
19941;DHT22;10132;50.864;5.176;2023-05-02T04:06:24;11.10;99.90
19941;DHT22;10132;50.864;5.176;2023-05-02T04:08:26;11.00;99.90
19941;DHT22;10132;50.864;5.176;2023-05-02T04:10:28;11.10;99.90
19941;DHT22;10132;50.864;5.176;2023-05-02T04:12:31;11.00;99.90
19941;DHT22;10132;50.864;5.176;2023-05-02T04:14:34;11.00;99.90
19941;DHT22;10132;50.864;5.176;2023-05-02T04:16:37;11.00;99.90
19941;DHT22;10132;50.864;5.176;2023-05-02T04:18:39;11.00;99.90
19941;DHT22;10132;50.864;5.176;2023-05-02T04:20:42;11.00;99.90
19941;DHT22;10132;50.864;5.176;2023-05-02T04:22:45;11.00;99.90
19941;DHT22;10132;50.864;5.176;2023-05-02T04:24:49;11.10;99.90
19941;DHT22;10132;50.864;5.176;2023-05-02T04:26:51;11.10;99.90
19941;DHT22;10132;50.864;5.176;2023-05-02T04:28:53;11.10;99.90
19941;DHT22;10132;50.864;5.176;2023-05-02T04:30:57;11.10;99.90
19941;DHT22;10132;50.864;5.176;2023-05-02T04:33:00;11.20;99.90
19941;DHT22;10132;50.864;5.176;2023-05-02T04:35:02;11.40;99.90
19941;DHT22;10132;50.864;5.176;2023-05-02T04:37:05;11.40;99.90
19941;DHT22;10132;50.864;5.176;2023-05-02T04:39:07;11.40;99.90
19941;DHT22;10132;50.864;5.176;2023-05-02T04:41:10;11.30;99.90
19941;DHT22;10132;50.864;5.176;2023-05-02T04:43:12;11.40;99.90
19941;DHT22;10132;50.864;5.176;2023-05-02T04:45:15;11.30;99.90
19941;DHT22;10132;50.864;5.176;2023-05-02T04:47:19;11.30;99.90
19941;DHT22;10132;50.864;5.176;2023-05-02T04:49:21;11.30;99.90
19941;DHT22;10132;50.864;5.176;2023-05-02T04:51:23;11.40;99.90
19941;DHT22;10132;50.864;5.176;2023-05-02T04:53:26;11.50;99.90
19941;DHT22;10132;50.864;5.176;2023-05-02T04:55:30;11.50;99.90
19941;DHT22;10132;50.864;5.176;2023-05-02T04:57:33;11.60;99.90
19941;DHT22;10132;50.864;5.176;2023-05-02T04:59:36;11.70;99.90
19941;DHT22;10132;50.864;5.176;2023-05-02T05:01:39;11.70;99.90
19941;DHT22;10132;50.864;5.176;2023-05-02T05:03:42;11.70;99.90
19941;DHT22;10132;50.864;5.176;2023-05-02T05:05:45;11.70;99.90
19941;DHT22;10132;50.864;5.176;2023-05-02T05:07:47;11.70;99.90
19941;DHT22;10132;50.864;5.176;2023-05-02T05:09:50;11.70;99.90
19941;DHT22;10132;50.864;5.176;2023-05-02T05:11:53;11.70;99.90
19941;DHT22;10132;50.864;5.176;2023-05-02T05:13:56;11.70;99.90
19941;DHT22;10132;50.864;5.176;2023-05-02T05:15:58;11.70;99.90
19941;DHT22;10132;50.864;5.176;2023-05-02T05:18:00;11.60;99.90
19941;DHT22;10132;50.864;5.176;2023-05-02T05:20:05;11.60;99.90
19941;DHT22;10132;50.864;5.176;2023-05-02T05:22:08;11.60;99.90
19941;DHT22;10132;50.864;5.176;2023-05-02T05:24:10;11.60;99.90
19941;DHT22;10132;50.864;5.176;2023-05-02T05:26:14;11.60;99.90
19941;DHT22;10132;50.864;5.176;2023-05-02T05:28:16;11.50;99.90
19941;DHT22;10132;50.864;5.176;2023-05-02T05:30:19;11.50;99.90
19941;DHT22;10132;50.864;5.176;2023-05-02T05:32:21;11.50;99.90
19941;DHT22;10132;50.864;5.176;2023-05-02T05:34:23;11.60;99.90
19941;DHT22;10132;50.864;5.176;2023-05-02T05:36:28;11.60;99.90
19941;DHT22;10132;50.864;5.176;2023-05-02T05:38:31;11.60;99.90
19941;DHT22;10132;50.864;5.176;2023-05-02T05:40:33;11.60;99.90
19941;DHT22;10132;50.864;5.176;2023-05-02T05:42:35;11.70;99.90
19941;DHT22;10132;50.864;5.176;2023-05-02T05:44:37;11.70;99.90
19941;DHT22;10132;50.864;5.176;2023-05-02T05:46:40;11.70;99.90
19941;DHT22;10132;50.864;5.176;2023-05-02T05:48:42;11.60;99.90
19941;DHT22;10132;50.864;5.176;2023-05-02T05:50:44;11.60;99.90
19941;DHT22;10132;50.864;5.176;2023-05-02T05:52:48;11.70;99.90
19941;DHT22;10132;50.864;5.176;2023-05-02T05:54:52;11.70;99.90
19941;DHT22;10132;50.864;5.176;2023-05-02T05:56:55;11.70;99.90
19941;DHT22;10132;50.864;5.176;2023-05-02T05:58:57;11.80;99.90
19941;DHT22;10132;50.864;5.176;2023-05-02T06:00:59;11.70;99.90
19941;DHT22;10132;50.864;5.176;2023-05-02T06:03:02;11.60;99.90
19941;DHT22;10132;50.864;5.176;2023-05-02T06:05:04;11.60;99.90
19941;DHT22;10132;50.864;5.176;2023-05-02T06:07:07;11.60;99.90
19941;DHT22;10132;50.864;5.176;2023-05-02T06:09:10;11.50;99.90
19941;DHT22;10132;50.864;5.176;2023-05-02T06:11:12;11.60;99.90
19941;DHT22;10132;50.864;5.176;2023-05-02T06:13:14;11.60;99.90
19941;DHT22;10132;50.864;5.176;2023-05-02T06:15:17;11.70;99.90
19941;DHT22;10132;50.864;5.176;2023-05-02T06:17:19;11.70;99.90
19941;DHT22;10132;50.864;5.176;2023-05-02T06:19:22;11.70;99.90
19941;DHT22;10132;50.864;5.176;2023-05-02T06:21:24;11.80;99.90
19941;DHT22;10132;50.864;5.176;2023-05-02T06:23:26;11.80;99.90
19941;DHT22;10132;50.864;5.176;2023-05-02T06:25:30;11.80;99.90
19941;DHT22;10132;50.864;5.176;2023-05-02T06:27:33;11.90;99.90
19941;DHT22;10132;50.864;5.176;2023-05-02T06:29:35;11.90;99.90
19941;DHT22;10132;50.864;5.176;2023-05-02T06:31:37;11.90;99.90
19941;DHT22;10132;50.864;5.176;2023-05-02T06:33:40;11.90;99.90
19941;DHT22;10132;50.864;5.176;2023-05-02T06:35:42;11.90;99.90
19941;DHT22;10132;50.864;5.176;2023-05-02T06:37:45;11.90;99.90
19941;DHT22;10132;50.864;5.176;2023-05-02T06:39:47;11.90;99.90
19941;DHT22;10132;50.864;5.176;2023-05-02T06:41:51;12.10;99.90
19941;DHT22;10132;50.864;5.176;2023-05-02T06:43:57;12.30;99.90
19941;DHT22;10132;50.864;5.176;2023-05-02T06:46:00;12.20;99.90
19941;DHT22;10132;50.864;5.176;2023-05-02T06:48:02;12.10;99.90
19941;DHT22;10132;50.864;5.176;2023-05-02T06:50:05;12.20;99.90
19941;DHT22;10132;50.864;5.176;2023-05-02T06:52:08;12.20;99.90
19941;DHT22;10132;50.864;5.176;2023-05-02T06:54:11;12.20;99.90
19941;DHT22;10132;50.864;5.176;2023-05-02T06:56:16;12.10;99.90
19941;DHT22;10132;50.864;5.176;2023-05-02T06:58:27;12.00;99.90
19941;DHT22;10132;50.864;5.176;2023-05-02T07:00:29;11.90;99.90
19941;DHT22;10132;50.864;5.176;2023-05-02T07:02:31;11.80;99.90
19941;DHT22;10132;50.864;5.176;2023-05-02T07:04:33;11.80;99.90
19941;DHT22;10132;50.864;5.176;2023-05-02T07:06:35;11.90;99.90
19941;DHT22;10132;50.864;5.176;2023-05-02T07:08:38;12.00;99.90
19941;DHT22;10132;50.864;5.176;2023-05-02T07:10:40;11.90;99.90
19941;DHT22;10132;50.864;5.176;2023-05-02T07:12:42;11.80;99.90
19941;DHT22;10132;50.864;5.176;2023-05-02T07:14:46;11.60;99.90
19941;DHT22;10132;50.864;5.176;2023-05-02T07:16:48;11.50;99.90
19941;DHT22;10132;50.864;5.176;2023-05-02T07:18:50;11.60;99.90
19941;DHT22;10132;50.864;5.176;2023-05-02T07:20:52;11.80;99.90
19941;DHT22;10132;50.864;5.176;2023-05-02T07:22:54;12.00;99.90
19941;DHT22;10132;50.864;5.176;2023-05-02T07:24:57;12.20;99.90
19941;DHT22;10132;50.864;5.176;2023-05-02T07:27:00;12.20;99.90
19941;DHT22;10132;50.864;5.176;2023-05-02T07:29:03;12.40;99.90
19941;DHT22;10132;50.864;5.176;2023-05-02T07:31:08;12.50;99.90
19941;DHT22;10132;50.864;5.176;2023-05-02T07:33:10;12.50;99.90
19941;DHT22;10132;50.864;5.176;2023-05-02T07:35:12;12.70;99.90
19941;DHT22;10132;50.864;5.176;2023-05-02T07:37:15;12.90;99.90
19941;DHT22;10132;50.864;5.176;2023-05-02T07:39:17;13.30;99.90
19941;DHT22;10132;50.864;5.176;2023-05-02T07:41:19;13.60;99.90
19941;DHT22;10132;50.864;5.176;2023-05-02T07:43:22;13.70;99.90
19941;DHT22;10132;50.864;5.176;2023-05-02T07:45:24;13.70;99.90
19941;DHT22;10132;50.864;5.176;2023-05-02T07:47:27;13.70;99.90
19941;DHT22;10132;50.864;5.176;2023-05-02T07:49:30;13.70;99.90
19941;DHT22;10132;50.864;5.176;2023-05-02T07:51:32;13.50;99.90
19941;DHT22;10132;50.864;5.176;2023-05-02T07:53:35;13.40;99.90
19941;DHT22;10132;50.864;5.176;2023-05-02T07:55:37;13.60;99.90
19941;DHT22;10132;50.864;5.176;2023-05-02T07:57:40;13.60;99.90
19941;DHT22;10132;50.864;5.176;2023-05-02T07:59:42;13.50;99.90
19941;DHT22;10132;50.864;5.176;2023-05-02T08:01:45;13.50;99.90
19941;DHT22;10132;50.864;5.176;2023-05-02T08:03:48;13.50;99.90
19941;DHT22;10132;50.864;5.176;2023-05-02T08:05:51;13.40;99.90
19941;DHT22;10132;50.864;5.176;2023-05-02T08:07:53;13.60;99.90
19941;DHT22;10132;50.864;5.176;2023-05-02T08:09:56;13.60;99.90
19941;DHT22;10132;50.864;5.176;2023-05-02T08:11:58;13.40;99.90
19941;DHT22;10132;50.864;5.176;2023-05-02T08:14:02;13.10;99.90
19941;DHT22;10132;50.864;5.176;2023-05-02T08:16:04;13.30;99.90
19941;DHT22;10132;50.864;5.176;2023-05-02T08:18:07;13.90;99.90
19941;DHT22;10132;50.864;5.176;2023-05-02T08:20:11;14.30;99.90
19941;DHT22;10132;50.864;5.176;2023-05-02T08:22:13;14.50;99.90
19941;DHT22;10132;50.864;5.176;2023-05-02T08:24:15;14.30;99.90
19941;DHT22;10132;50.864;5.176;2023-05-02T08:26:18;14.10;99.90
19941;DHT22;10132;50.864;5.176;2023-05-02T08:28:21;14.00;99.90
19941;DHT22;10132;50.864;5.176;2023-05-02T08:30:23;13.80;99.90
19941;DHT22;10132;50.864;5.176;2023-05-02T08:32:26;13.80;99.90
19941;DHT22;10132;50.864;5.176;2023-05-02T08:34:30;13.70;99.90
19941;DHT22;10132;50.864;5.176;2023-05-02T08:36:34;14.00;99.90
19941;DHT22;10132;50.864;5.176;2023-05-02T08:38:37;14.10;99.90
19941;DHT22;10132;50.864;5.176;2023-05-02T08:40:39;13.80;99.90
19941;DHT22;10132;50.864;5.176;2023-05-02T08:42:42;13.80;99.90
19941;DHT22;10132;50.864;5.176;2023-05-02T08:44:45;13.70;99.90
19941;DHT22;10132;50.864;5.176;2023-05-02T08:46:48;13.80;99.90
19941;DHT22;10132;50.864;5.176;2023-05-02T08:48:52;13.80;99.90
19941;DHT22;10132;50.864;5.176;2023-05-02T08:50:55;13.80;99.90
19941;DHT22;10132;50.864;5.176;2023-05-02T08:52:59;14.40;99.90
19941;DHT22;10132;50.864;5.176;2023-05-02T08:55:02;14.50;99.90
19941;DHT22;10132;50.864;5.176;2023-05-02T08:57:04;14.40;99.90
19941;DHT22;10132;50.864;5.176;2023-05-02T08:59:07;14.10;99.90
19941;DHT22;10132;50.864;5.176;2023-05-02T09:01:12;13.90;99.90
19941;DHT22;10132;50.864;5.176;2023-05-02T09:03:22;13.90;99.90
19941;DHT22;10132;50.864;5.176;2023-05-02T09:05:33;14.00;99.90
19941;DHT22;10132;50.864;5.176;2023-05-02T09:07:44;14.20;99.90
19941;DHT22;10132;50.864;5.176;2023-05-02T09:09:48;14.20;99.90
19941;DHT22;10132;50.864;5.176;2023-05-02T09:11:52;14.00;99.90
19941;DHT22;10132;50.864;5.176;2023-05-02T09:13:54;14.20;99.90
19941;DHT22;10132;50.864;5.176;2023-05-02T09:16:00;14.50;99.90
19941;DHT22;10132;50.864;5.176;2023-05-02T09:18:03;14.50;99.90
19941;DHT22;10132;50.864;5.176;2023-05-02T09:20:09;14.80;99.90
19941;DHT22;10132;50.864;5.176;2023-05-02T09:22:22;15.00;99.90
19941;DHT22;10132;50.864;5.176;2023-05-02T09:24:24;14.90;99.90
19941;DHT22;10132;50.864;5.176;2023-05-02T09:26:29;15.40;99.90
19941;DHT22;10132;50.864;5.176;2023-05-02T09:28:39;15.90;99.90
19941;DHT22;10132;50.864;5.176;2023-05-02T09:30:42;15.80;99.90
19941;DHT22;10132;50.864;5.176;2023-05-02T09:32:45;15.50;99.90
19941;DHT22;10132;50.864;5.176;2023-05-02T09:35:06;15.30;99.90
19941;DHT22;10132;50.864;5.176;2023-05-02T09:37:08;15.10;99.90
19941;DHT22;10132;50.864;5.176;2023-05-02T09:39:13;15.10;99.90
19941;DHT22;10132;50.864;5.176;2023-05-02T09:41:17;15.70;99.90
19941;DHT22;10132;50.864;5.176;2023-05-02T09:43:22;16.40;99.90
19941;DHT22;10132;50.864;5.176;2023-05-02T09:45:25;16.70;99.90
19941;DHT22;10132;50.864;5.176;2023-05-02T09:47:27;16.50;99.90
19941;DHT22;10132;50.864;5.176;2023-05-02T09:49:39;15.90;99.90
19941;DHT22;10132;50.864;5.176;2023-05-02T09:51:42;15.40;99.90
19941;DHT22;10132;50.864;5.176;2023-05-02T09:53:44;15.20;99.90
19941;DHT22;10132;50.864;5.176;2023-05-02T09:55:47;15.30;99.90
19941;DHT22;10132;50.864;5.176;2023-05-02T09:57:49;15.20;99.90
19941;DHT22;10132;50.864;5.176;2023-05-02T09:59:56;14.80;99.90
19941;DHT22;10132;50.864;5.176;2023-05-02T10:02:00;14.90;99.90
19941;DHT22;10132;50.864;5.176;2023-05-02T10:04:03;15.10;99.90
19941;DHT22;10132;50.864;5.176;2023-05-02T10:06:08;15.10;99.90
19941;DHT22;10132;50.864;5.176;2023-05-02T10:08:11;15.00;99.90
19941;DHT22;10132;50.864;5.176;2023-05-02T10:10:16;14.90;99.90
19941;DHT22;10132;50.864;5.176;2023-05-02T10:12:22;15.00;99.90
19941;DHT22;10132;50.864;5.176;2023-05-02T10:14:27;15.70;99.90
19941;DHT22;10132;50.864;5.176;2023-05-02T10:16:34;16.70;99.90
19941;DHT22;10132;50.864;5.176;2023-05-02T10:18:41;17.00;99.90
19941;DHT22;10132;50.864;5.176;2023-05-02T10:20:47;16.60;99.90
19941;DHT22;10132;50.864;5.176;2023-05-02T10:22:54;15.90;99.90
19941;DHT22;10132;50.864;5.176;2023-05-02T10:24:58;15.40;99.90
19941;DHT22;10132;50.864;5.176;2023-05-02T10:27:03;15.20;99.90
19941;DHT22;10132;50.864;5.176;2023-05-02T10:29:05;15.20;99.90
19941;DHT22;10132;50.864;5.176;2023-05-02T10:31:09;15.60;99.90
19941;DHT22;10132;50.864;5.176;2023-05-02T10:33:15;16.00;99.90
19941;DHT22;10132;50.864;5.176;2023-05-02T10:35:19;16.20;99.90
19941;DHT22;10132;50.864;5.176;2023-05-02T10:37:22;16.00;99.90
19941;DHT22;10132;50.864;5.176;2023-05-02T10:39:26;15.60;99.90
19941;DHT22;10132;50.864;5.176;2023-05-02T10:41:31;15.80;99.90
19941;DHT22;10132;50.864;5.176;2023-05-02T10:43:35;16.40;99.90
19941;DHT22;10132;50.864;5.176;2023-05-02T10:45:38;16.60;99.90
19941;DHT22;10132;50.864;5.176;2023-05-02T10:47:41;16.10;99.90
19941;DHT22;10132;50.864;5.176;2023-05-02T10:49:53;15.80;99.90
19941;DHT22;10132;50.864;5.176;2023-05-02T10:51:56;16.00;99.90
19941;DHT22;10132;50.864;5.176;2023-05-02T10:54:17;16.30;99.90
19941;DHT22;10132;50.864;5.176;2023-05-02T10:56:34;17.00;99.90
19941;DHT22;10132;50.864;5.176;2023-05-02T10:58:51;17.70;99.90
19941;DHT22;10132;50.864;5.176;2023-05-02T11:00:53;17.80;99.90
19941;DHT22;10132;50.864;5.176;2023-05-02T11:02:55;17.30;99.90
19941;DHT22;10132;50.864;5.176;2023-05-02T11:05:00;17.00;99.90
19941;DHT22;10132;50.864;5.176;2023-05-02T11:07:18;16.60;99.90
19941;DHT22;10132;50.864;5.176;2023-05-02T11:09:33;16.60;99.90
19941;DHT22;10132;50.864;5.176;2023-05-02T11:11:40;16.80;99.90
19941;DHT22;10132;50.864;5.176;2023-05-02T11:13:48;16.90;99.90
19941;DHT22;10132;50.864;5.176;2023-05-02T11:15:54;16.80;99.90
19941;DHT22;10132;50.864;5.176;2023-05-02T11:18:05;16.50;99.90
19941;DHT22;10132;50.864;5.176;2023-05-02T11:20:24;16.30;99.90
19941;DHT22;10132;50.864;5.176;2023-05-02T11:22:33;16.40;99.90
19941;DHT22;10132;50.864;5.176;2023-05-02T11:24:37;16.70;99.90
19941;DHT22;10132;50.864;5.176;2023-05-02T11:26:39;16.70;99.90
19941;DHT22;10132;50.864;5.176;2023-05-02T11:28:42;16.40;99.90
19941;DHT22;10132;50.864;5.176;2023-05-02T11:30:47;16.20;99.90
19941;DHT22;10132;50.864;5.176;2023-05-02T11:33:11;16.40;99.90
19941;DHT22;10132;50.864;5.176;2023-05-02T11:35:18;16.80;99.90
19941;DHT22;10132;50.864;5.176;2023-05-02T11:37:24;16.90;99.90
19941;DHT22;10132;50.864;5.176;2023-05-02T11:39:26;16.60;99.90
19941;DHT22;10132;50.864;5.176;2023-05-02T11:41:38;16.30;99.90
19941;DHT22;10132;50.864;5.176;2023-05-02T11:43:42;16.50;99.90
19941;DHT22;10132;50.864;5.176;2023-05-02T11:45:45;16.60;99.90
19941;DHT22;10132;50.864;5.176;2023-05-02T11:47:48;16.60;99.90
19941;DHT22;10132;50.864;5.176;2023-05-02T11:49:53;17.00;99.90
19941;DHT22;10132;50.864;5.176;2023-05-02T11:51:55;17.80;99.90
19941;DHT22;10132;50.864;5.176;2023-05-02T11:54:00;17.30;99.90
19941;DHT22;10132;50.864;5.176;2023-05-02T11:56:04;16.90;99.90
19941;DHT22;10132;50.864;5.176;2023-05-02T11:58:11;17.40;99.90
19941;DHT22;10132;50.864;5.176;2023-05-02T12:00:15;17.80;99.90
19941;DHT22;10132;50.864;5.176;2023-05-02T12:02:18;17.60;99.90
19941;DHT22;10132;50.864;5.176;2023-05-02T12:04:20;17.50;99.90
19941;DHT22;10132;50.864;5.176;2023-05-02T12:06:23;17.60;99.90
19941;DHT22;10132;50.864;5.176;2023-05-02T12:08:27;17.20;99.90
19941;DHT22;10132;50.864;5.176;2023-05-02T12:10:37;16.80;99.90
19941;DHT22;10132;50.864;5.176;2023-05-02T12:12:42;16.60;99.90
19941;DHT22;10132;50.864;5.176;2023-05-02T12:14:44;16.90;99.90
19941;DHT22;10132;50.864;5.176;2023-05-02T12:16:46;17.50;99.90
19941;DHT22;10132;50.864;5.176;2023-05-02T12:18:48;17.60;99.90
19941;DHT22;10132;50.864;5.176;2023-05-02T12:20:51;17.80;99.90
19941;DHT22;10132;50.864;5.176;2023-05-02T12:22:55;17.70;99.90
19941;DHT22;10132;50.864;5.176;2023-05-02T12:24:58;18.00;99.90
19941;DHT22;10132;50.864;5.176;2023-05-02T12:27:11;18.40;99.90
19941;DHT22;10132;50.864;5.176;2023-05-02T12:29:14;18.70;99.90
19941;DHT22;10132;50.864;5.176;2023-05-02T12:31:16;19.10;99.90
19941;DHT22;10132;50.864;5.176;2023-05-02T12:33:19;19.40;99.90
19941;DHT22;10132;50.864;5.176;2023-05-02T12:35:21;19.00;99.90
19941;DHT22;10132;50.864;5.176;2023-05-02T12:37:24;18.60;99.90
19941;DHT22;10132;50.864;5.176;2023-05-02T12:39:37;18.60;99.90
19941;DHT22;10132;50.864;5.176;2023-05-02T12:41:39;18.60;99.90
19941;DHT22;10132;50.864;5.176;2023-05-02T12:43:47;18.30;99.90
19941;DHT22;10132;50.864;5.176;2023-05-02T12:46:08;18.20;99.90
19941;DHT22;10132;50.864;5.176;2023-05-02T12:48:21;18.00;99.90
19941;DHT22;10132;50.864;5.176;2023-05-02T12:50:34;17.80;99.90
19941;DHT22;10132;50.864;5.176;2023-05-02T12:52:49;17.70;99.90
19941;DHT22;10132;50.864;5.176;2023-05-02T12:55:16;17.30;99.90
19941;DHT22;10132;50.864;5.176;2023-05-02T12:57:24;16.70;99.90
19941;DHT22;10132;50.864;5.176;2023-05-02T12:59:29;16.60;99.90
19941;DHT22;10132;50.864;5.176;2023-05-02T13:01:32;17.10;99.90
19941;DHT22;10132;50.864;5.176;2023-05-02T13:03:36;17.30;99.90
19941;DHT22;10132;50.864;5.176;2023-05-02T13:05:39;17.60;99.90